Time;durP1;ratioP1;P1;durP2;ratioP2;P2;SDS_P1;SDS_P2;PMS_P1;PMS_P2;Temp;Humidity;BMP_temperature;BMP_pressure;BME280_temperature;BME280_humidity;BME280_pressure;Samples;Min_cycle;Max_cycle;Signal;HPM_P1;HPM_P2
2022/05/31 00:10:08;;;;;;;30.60;21.50;;;;;;;7.63;74.71;98570.60;432796;1271;98680;-44
2022/05/31 00:20:13;;;;;;;38.10;21.00;;;;;;;7.63;75.15;98579.75;432791;1271;108645;-40
2022/05/31 00:30:20;;;;;;;25.60;20.10;;;;;;;7.65;75.02;98580.07;432782;1270;97907;-45
2022/05/31 00:40:30;;;;;;;36.50;24.20;;;;;;;7.63;75.00;98582.54;432812;1269;110982;-43
2022/05/31 00:50:39;;;;;;;33.00;22.60;;;;;;;7.33;74.75;98593.99;432587;1270;107850;-42
2022/05/31 01:00:47;;;;;;;28.00;18.70;;;;;;;7.19;75.21;98600.77;432438;1267;97715;-41
2022/05/31 01:10:54;;;;;;;23.90;15.10;;;;;;;7.49;75.79;98611.73;433682;1260;111070;-40
2022/05/31 01:21:01;;;;;;;14.60;11.60;;;;;;;7.79;75.90;98607.95;433496;1268;108789;-40
2022/05/31 01:31:12;;;;;;;14.50;10.10;;;;;;;8.00;75.75;98609.59;433757;1268;98608;-39
2022/05/31 01:41:20;;;;;;;17.30;11.00;;;;;;;8.05;75.68;98614.02;433210;1269;108789;-41
2022/05/31 01:51:28;;;;;;;16.20;13.20;;;;;;;7.95;75.75;98612.91;433722;1268;98614;-38
2022/05/31 02:01:39;;;;;;;23.10;13.30;;;;;;;7.77;75.89;98613.30;433358;1269;111573;-42
2022/05/31 02:11:46;;;;;;;14.20;11.20;;;;;;;7.46;75.37;98615.98;433663;1268;108790;-40
2022/05/31 02:21:53;;;;;;;15.50;11.60;;;;;;;7.16;75.39;98609.23;434031;1268;97949;-40
2022/05/31 02:32:03;;;;;;;14.60;10.60;;;;;;;7.02;75.64;98607.25;434031;1268;111075;-42
2022/05/31 02:42:08;;;;;;;11.00;9.70;;;;;;;7.01;75.76;98617.58;433968;1268;107854;-42
2022/05/31 02:52:16;;;;;;;24.10;15.40;;;;;;;7.00;75.96;98624.52;434017;1266;98071;-40
2022/05/31 03:02:23;;;;;;;21.60;17.20;;;;;;;6.93;75.92;98622.94;434117;1268;109184;-40
2022/05/31 03:12:31;;;;;;;18.60;12.90;;;;;;;6.91;76.02;98627.48;433629;1268;97900;-43
2022/05/31 03:22:42;;;;;;;17.60;13.60;;;;;;;7.47;76.00;98636.49;434005;1268;109529;-40
2022/05/31 03:32:50;;;;;;;19.10;14.60;;;;;;;10.14;74.82;98642.36;434038;1268;108931;-43
2022/05/31 03:43:00;;;;;;;25.50;17.40;;;;;;;12.01;73.21;98643.61;434002;1268;97946;-42
2022/05/31 03:53:05;;;;;;;20.00;15.30;;;;;;;13.36;71.94;98639.30;434247;1267;111071;-40
2022/05/31 04:03:12;;;;;;;18.70;14.60;;;;;;;14.56;70.33;98652.48;434190;1266;108999;-40
2022/05/31 04:13:22;;;;;;;16.50;13.50;;;;;;;15.13;69.25;98649.91;434327;1267;96671;-42
2022/05/31 04:33:55;;;;;;;14.50;11.30;;;;;;;17.33;66.72;98655.85;433991;1268;96667;-42
2022/05/31 04:54:12;;;;;;;11.10;9.80;;;;;;;17.08;63.71;98666.77;434272;1268;109157;-41
2022/05/31 05:04:19;;;;;;;25.90;13.10;;;;;;;16.89;62.67;98673.48;434186;1268;96751;-42
2022/05/31 05:14:25;;;;;;;16.00;12.30;;;;;;;16.90;62.45;98672.25;434252;1268;109244;-42
2022/05/31 05:24:32;;;;;;;15.60;11.90;;;;;;;17.12;62.45;98676.98;433659;1268;97952;-39
2022/05/31 05:34:39;;;;;;;14.10;11.70;;;;;;;17.43;62.53;98678.00;434326;1268;111596;-40
2022/05/31 05:44:47;;;;;;;11.30;9.10;;;;;;;17.76;61.60;98677.20;434184;1268;108516;-42
2022/05/31 05:54:54;;;;;;;12.30;8.60;;;;;;;18.18;61.10;98665.73;434453;1268;98028;-40
2022/05/31 06:04:59;;;;;;;10.90;6.90;;;;;;;18.61;60.91;98656.77;434066;1267;111080;-41
2022/05/31 06:15:09;;;;;;;6.60;5.90;;;;;;;19.14;60.00;98664.81;434072;1268;108812;-42
2022/05/31 06:45:33;;;;;;;6.40;4.10;;;;;;;19.93;56.60;98671.77;434017;1268;108336;-40
2022/05/31 07:06:03;;;;;;;4.30;3.20;;;;;;;19.98;54.59;98676.04;434233;1268;111033;-40
2022/05/31 07:16:10;;;;;;;7.20;2.80;;;;;;;19.79;52.80;98680.16;434172;1268;97880;-41
2022/05/31 07:36:43;;;;;;;5.20;3.20;;;;;;;20.05;50.85;98685.13;433987;1267;111155;-40
2022/05/31 07:46:51;;;;;;;4.00;2.90;;;;;;;20.28;50.56;98691.09;434356;1268;108887;-41
2022/05/31 07:56:58;;;;;;;5.80;3.00;;;;;;;20.45;50.15;98690.02;434295;1268;97887;-41
2022/05/31 08:07:03;;;;;;;4.90;4.10;;;;;;;21.09;49.81;98691.38;433904;1268;111077;-40
2022/05/31 08:17:11;;;;;;;4.80;4.20;;;;;;;20.82;49.08;98689.92;434384;1268;108766;-42
2022/05/31 08:57:53;;;;;;;11.10;4.10;;;;;;;21.14;48.63;98673.06;434107;1267;98048;-41
2022/05/31 09:08:01;;;;;;;4.00;2.60;;;;;;;20.64;46.77;98666.91;434024;1268;111384;-42
2022/05/31 09:18:07;;;;;;;4.70;2.90;;;;;;;20.99;47.13;98660.13;434137;1268;108714;-40
2022/05/31 09:28:18;;;;;;;6.40;3.10;;;;;;;20.66;45.78;98659.96;433717;1268;662842;-41
2022/05/31 09:38:55;;;;;;;4.80;2.70;;;;;;;20.75;45.33;98652.42;434203;1268;109835;-42
2022/05/31 09:49:11;;;;;;;4.60;3.20;;;;;;;20.63;45.21;98645.98;434120;1267;107751;-40
2022/05/31 09:59:26;;;;;;;3.60;2.90;;;;;;;21.23;45.24;98640.75;434072;1268;97933;-41
2022/05/31 10:09:31;;;;;;;5.40;2.60;;;;;;;21.63;46.20;98627.34;433560;1268;110309;-40
2022/05/31 10:19:38;;;;;;;4.10;2.70;;;;;;;22.14;44.93;98608.95;433709;1267;109022;-41
2022/05/31 10:29:49;;;;;;;5.30;2.00;;;;;;;21.77;41.49;98604.70;434154;1268;97913;-43
2022/05/31 10:40:00;;;;;;;3.30;2.40;;;;;;;21.51;41.23;98599.75;434062;1266;111063;-41
2022/05/31 10:50:08;;;;;;;4.10;2.00;;;;;;;22.05;41.10;98591.77;434262;1267;108794;-44
2022/05/31 11:00:17;;;;;;;2.20;1.70;;;;;;;21.58;40.36;98590.92;433828;1268;98234;-41
2022/05/31 11:20:50;;;;;;;3.60;2.10;;;;;;;21.83;38.99;98582.69;433743;1268;108264;-39
2022/05/31 11:31:01;;;;;;;4.50;1.70;;;;;;;22.56;39.08;98573.55;433619;1267;96967;-42
2022/05/31 11:41:10;;;;;;;5.80;1.80;;;;;;;22.38;38.42;98570.88;433756;1267;110105;-41
2022/05/31 12:01:31;;;;;;;3.10;1.40;;;;;;;22.34;37.37;98561.23;433926;1267;97897;-41
2022/05/31 12:11:40;;;;;;;4.50;2.30;;;;;;;22.44;37.32;98553.80;433719;1267;111914;-41
2022/05/31 12:21:44;;;;;;;2.10;1.40;;;;;;;22.61;36.58;98545.48;433665;1266;107605;-42
2022/05/31 12:42:05;;;;;;;4.30;1.50;;;;;;;21.97;37.25;98522.38;433672;1268;111005;-40
2022/05/31 13:02:56;;;;;;;2.20;1.60;;;;;;;21.05;37.93;98498.00;433447;1267;98000;-44
2022/05/31 13:23:25;;;;;;;3.00;2.00;;;;;;;20.80;38.74;98487.70;433560;1268;108576;-45
2022/05/31 13:33:33;;;;;;;5.00;1.50;;;;;;;21.03;38.52;98478.11;433703;1267;98018;-41
2022/05/31 13:43:40;;;;;;;;;;;;;;;21.26;38.87;98466.59;433616;1268;111079;-41
2022/05/31 13:53:48;;;;;;;2.80;2.30;;;;;;;21.63;37.99;98460.92;433800;1265;109755;-42
2022/05/31 14:03:57;;;;;;;3.20;2.20;;;;;;;21.84;37.20;98449.70;433596;1267;97932;-40
2022/05/31 14:14:13;;;;;;;3.90;2.30;;;;;;;21.78;37.63;98447.35;433694;1267;111032;-41
2022/05/31 14:54:49;;;;;;;4.50;2.90;;;;;;;21.72;37.25;98428.41;433620;1267;96676;-42
2022/05/31 15:04:58;;;;;;;3.70;2.30;;;;;;;21.36;37.85;98424.21;433916;1267;97907;-43
2022/05/31 15:25:35;;;;;;;5.90;2.70;;;;;;;21.69;37.82;98393.89;433651;1267;108854;-43
2022/05/31 15:35:42;;;;;;;2.80;2.30;;;;;;;21.62;38.16;98389.46;433641;1268;97778;-43
2022/05/31 15:46:10;;;;;;;7.40;3.20;;;;;;;21.43;37.72;98381.82;433488;1268;108945;-43
2022/05/31 15:56:18;;;;;;;6.00;3.40;;;;;;;21.22;38.42;98374.17;433887;1268;96694;-45
2022/05/31 16:06:26;;;;;;;2.90;2.60;;;;;;;20.99;38.81;98371.36;433757;1267;110763;-42
2022/05/31 16:16:33;;;;;;;4.20;3.40;;;;;;;20.79;39.34;98356.02;433674;1267;107086;-41
2022/05/31 16:26:41;;;;;;;7.80;4.10;;;;;;;20.53;39.62;98357.55;433729;1267;97920;-42
2022/05/31 16:36:49;;;;;;;7.00;3.90;;;;;;;20.26;39.87;98361.63;433788;1267;110245;-40
2022/05/31 16:46:57;;;;;;;3.90;3.50;;;;;;;20.09;40.39;98362.91;433625;1267;108782;-42
2022/05/31 16:57:08;;;;;;;10.40;4.90;;;;;;;19.98;40.75;98358.14;433579;1267;97896;-41
2022/05/31 17:17:49;;;;;;;6.50;4.80;;;;;;;20.00;41.97;98353.02;433485;1267;107708;-46
2022/05/31 17:27:58;;;;;;;6.70;4.20;;;;;;;19.83;42.22;98357.77;433730;1267;96592;-42
2022/05/31 17:38:04;;;;;;;5.80;4.50;;;;;;;19.67;42.51;98358.71;433592;1268;111130;-41
2022/05/31 17:48:11;;;;;;;6.50;4.50;;;;;;;19.50;43.06;98365.37;433486;1268;108428;-42
2022/05/31 17:58:17;;;;;;;12.80;6.60;;;;;;;19.27;43.41;98362.60;433306;1269;97971;-42
2022/05/31 18:08:23;;;;;;;8.70;6.40;;;;;;;19.10;44.16;98364.65;433090;1270;111492;-41
2022/05/31 18:18:36;;;;;;;11.10;6.50;;;;;;;18.94;44.69;98357.48;433104;1269;108843;-41
2022/05/31 18:49:12;;;;;;;6.80;5.40;;;;;;;18.43;45.80;98356.48;433729;1267;107460;-43
2022/05/31 18:59:19;;;;;;;7.90;4.10;;;;;;;18.19;46.29;98349.30;434415;1268;96669;-43
2022/05/31 19:09:27;;;;;;;6.40;5.60;;;;;;;17.99;46.74;98352.57;434154;1268;110283;-43
2022/05/31 19:29:40;;;;;;;16.00;10.20;;;;;;;17.33;48.39;98360.86;434159;1268;97943;-41
2022/05/31 19:39:49;;;;;;;11.00;8.50;;;;;;;17.20;48.92;98357.70;434176;1268;111153;-44
2022/05/31 19:49:55;;;;;;;7.70;6.90;;;;;;;17.17;49.25;98352.92;434287;1267;109750;-42
2022/05/31 20:00:02;;;;;;;9.80;6.70;;;;;;;17.11;49.67;98346.56;434102;1268;97897;-41
2022/05/31 20:10:15;;;;;;;16.80;8.80;;;;;;;16.97;50.34;98350.08;434218;1268;111098;-44
2022/05/31 20:20:22;;;;;;;9.70;6.80;;;;;;;16.80;51.15;98356.59;434182;1268;108963;-41
2022/05/31 20:30:29;;;;;;;12.30;6.60;;;;;;;16.64;51.74;98361.69;433975;1267;97926;-44
2022/05/31 20:40:34;;;;;;;8.60;7.60;;;;;;;16.42;52.44;98354.80;434074;1267;110932;-42
2022/05/31 20:50:43;;;;;;;9.70;8.60;;;;;;;16.27;53.15;98350.64;434116;1268;107872;-40
2022/05/31 21:00:51;;;;;;;10.10;8.00;;;;;;;15.92;53.75;98341.80;433609;1267;97999;-44
2022/05/31 21:10:58;;;;;;;10.30;7.60;;;;;;;15.50;54.38;98321.55;433631;1267;108912;-40
2022/05/31 21:21:10;;;;;;;16.90;10.10;;;;;;;15.10;55.09;98299.61;433651;1268;108898;-43
2022/05/31 21:31:17;;;;;;;21.40;11.70;;;;;;;14.68;55.96;98303.26;433201;1271;412905;-42
2022/05/31 21:41:24;;;;;;;18.40;12.80;;;;;;;14.27;56.87;98282.49;433083;1270;111804;-41
2022/05/31 21:51:31;;;;;;;18.50;12.20;;;;;;;14.07;57.70;98259.94;433660;1267;108487;-40
2022/05/31 22:01:39;;;;;;;19.00;12.00;;;;;;;14.09;58.55;98260.69;433785;1268;97920;-42
2022/05/31 22:21:55;;;;;;;18.90;13.30;;;;;;;13.78;59.63;98297.73;433606;1268;97933;-40
2022/05/31 22:32:02;;;;;;;14.60;10.90;;;;;;;13.60;60.02;98309.67;433661;1268;110708;-42
2022/05/31 22:42:09;;;;;;;15.60;11.70;;;;;;;13.46;60.67;98308.73;433505;1268;109116;-40
2022/05/31 22:52:17;;;;;;;18.20;11.30;;;;;;;13.45;61.14;98294.65;433611;1268;97929;-41
2022/05/31 23:02:24;;;;;;;16.40;12.00;;;;;;;13.53;61.89;98279.00;433499;1268;108814;-40
2022/05/31 23:12:32;;;;;;;15.10;13.50;;;;;;;13.55;62.29;98270.02;433496;1268;98031;-41
2022/05/31 23:33:05;;;;;;;14.90;11.90;;;;;;;13.69;62.35;98271.16;433703;1268;109694;-40
2022/05/31 23:43:12;;;;;;;13.90;9.80;;;;;;;13.94;62.56;98275.47;433684;1267;97532;-43
2022/05/31 23:53:20;;;;;;;19.30;13.30;;;;;;;14.21;62.45;98280.04;433672;1268;111192;-44
